sensor_id;sensor_type;location;lat;lon;timestamp;P1;durP1;ratioP1;P2;durP2;ratioP2
41739;SDS011;27422;52.444;13.300;2023-04-21T00:02:11;10.88;;;3.70;;
41739;SDS011;27422;52.444;13.300;2023-04-21T00:04:40;8.30;;;3.83;;
41739;SDS011;27422;52.444;13.300;2023-04-21T00:07:05;9.48;;;3.90;;
41739;SDS011;27422;52.444;13.300;2023-04-21T00:09:31;9.13;;;3.80;;
41739;SDS011;27422;52.444;13.300;2023-04-21T00:11:56;9.50;;;4.20;;
41739;SDS011;27422;52.444;13.300;2023-04-21T00:14:21;8.20;;;4.00;;
41739;SDS011;27422;52.444;13.300;2023-04-21T00:16:47;9.65;;;3.63;;
41739;SDS011;27422;52.444;13.300;2023-04-21T00:19:16;10.68;;;4.40;;
41739;SDS011;27422;52.444;13.300;2023-04-21T00:21:45;9.85;;;4.57;;
41739;SDS011;27422;52.444;13.300;2023-04-21T00:24:10;11.95;;;4.85;;
41739;SDS011;27422;52.444;13.300;2023-04-21T00:26:36;10.05;;;4.03;;
41739;SDS011;27422;52.444;13.300;2023-04-21T00:29:01;10.02;;;4.55;;
41739;SDS011;27422;52.444;13.300;2023-04-21T00:31:26;8.35;;;4.28;;
41739;SDS011;27422;52.444;13.300;2023-04-21T00:33:52;9.88;;;4.18;;
41739;SDS011;27422;52.444;13.300;2023-04-21T00:36:18;8.65;;;4.53;;
41739;SDS011;27422;52.444;13.300;2023-04-21T00:38:43;11.63;;;4.68;;
41739;SDS011;27422;52.444;13.300;2023-04-21T00:41:09;10.20;;;4.90;;
41739;SDS011;27422;52.444;13.300;2023-04-21T00:43:34;9.00;;;4.85;;
41739;SDS011;27422;52.444;13.300;2023-04-21T00:45:59;10.82;;;4.88;;
41739;SDS011;27422;52.444;13.300;2023-04-21T00:48:25;10.77;;;4.65;;
41739;SDS011;27422;52.444;13.300;2023-04-21T00:50:50;9.55;;;4.85;;
41739;SDS011;27422;52.444;13.300;2023-04-21T00:53:15;8.25;;;4.00;;
41739;SDS011;27422;52.444;13.300;2023-04-21T00:55:41;11.25;;;4.43;;
41739;SDS011;27422;52.444;13.300;2023-04-21T00:58:07;9.80;;;4.68;;
41739;SDS011;27422;52.444;13.300;2023-04-21T01:00:32;9.93;;;4.60;;
41739;SDS011;27422;52.444;13.300;2023-04-21T01:02:58;11.13;;;4.85;;
41739;SDS011;27422;52.444;13.300;2023-04-21T01:05:25;10.48;;;4.78;;
41739;SDS011;27422;52.444;13.300;2023-04-21T01:07:50;9.80;;;4.60;;
41739;SDS011;27422;52.444;13.300;2023-04-21T01:10:15;12.07;;;4.80;;
41739;SDS011;27422;52.444;13.300;2023-04-21T01:12:44;9.52;;;4.68;;
41739;SDS011;27422;52.444;13.300;2023-04-21T01:15:11;9.90;;;4.93;;
41739;SDS011;27422;52.444;13.300;2023-04-21T01:17:40;12.43;;;4.93;;
41739;SDS011;27422;52.444;13.300;2023-04-21T01:20:09;8.73;;;4.60;;
41739;SDS011;27422;52.444;13.300;2023-04-21T01:22:36;10.82;;;4.88;;
41739;SDS011;27422;52.444;13.300;2023-04-21T01:25:02;14.10;;;5.15;;
41739;SDS011;27422;52.444;13.300;2023-04-21T01:27:28;10.88;;;5.25;;
41739;SDS011;27422;52.444;13.300;2023-04-21T01:29:54;9.95;;;5.00;;
41739;SDS011;27422;52.444;13.300;2023-04-21T01:32:20;14.88;;;5.38;;
41739;SDS011;27422;52.444;13.300;2023-04-21T01:34:47;10.50;;;5.40;;
41739;SDS011;27422;52.444;13.300;2023-04-21T01:37:15;9.50;;;5.00;;
41739;SDS011;27422;52.444;13.300;2023-04-21T01:39:43;10.05;;;5.95;;
41739;SDS011;27422;52.444;13.300;2023-04-21T01:44:35;13.40;;;5.40;;
41739;SDS011;27422;52.444;13.300;2023-04-21T01:47:00;8.43;;;5.10;;
41739;SDS011;27422;52.444;13.300;2023-04-21T01:49:26;9.38;;;5.38;;
41739;SDS011;27422;52.444;13.300;2023-04-21T01:51:51;15.07;;;5.50;;
41739;SDS011;27422;52.444;13.300;2023-04-21T01:54:17;11.13;;;5.97;;
41739;SDS011;27422;52.444;13.300;2023-04-21T01:56:42;12.10;;;5.53;;
41739;SDS011;27422;52.444;13.300;2023-04-21T01:59:07;11.05;;;5.15;;
41739;SDS011;27422;52.444;13.300;2023-04-21T02:01:33;9.38;;;5.72;;
41739;SDS011;27422;52.444;13.300;2023-04-21T02:04:00;12.37;;;6.10;;
41739;SDS011;27422;52.444;13.300;2023-04-21T02:06:26;9.27;;;5.30;;
41739;SDS011;27422;52.444;13.300;2023-04-21T02:08:51;10.40;;;5.47;;
41739;SDS011;27422;52.444;13.300;2023-04-21T02:11:17;10.77;;;5.88;;
41739;SDS011;27422;52.444;13.300;2023-04-21T02:13:42;12.10;;;6.05;;
41739;SDS011;27422;52.444;13.300;2023-04-21T02:16:07;12.40;;;5.90;;
41739;SDS011;27422;52.444;13.300;2023-04-21T02:18:33;9.93;;;5.78;;
41739;SDS011;27422;52.444;13.300;2023-04-21T02:20:59;12.05;;;5.80;;
41739;SDS011;27422;52.444;13.300;2023-04-21T02:23:24;12.15;;;6.15;;
41739;SDS011;27422;52.444;13.300;2023-04-21T02:25:49;10.30;;;5.82;;
41739;SDS011;27422;52.444;13.300;2023-04-21T02:28:15;10.65;;;5.88;;
41739;SDS011;27422;52.444;13.300;2023-04-21T02:30:40;11.00;;;6.38;;
41739;SDS011;27422;52.444;13.300;2023-04-21T02:33:05;11.38;;;6.40;;
41739;SDS011;27422;52.444;13.300;2023-04-21T02:35:31;10.57;;;5.85;;
41739;SDS011;27422;52.444;13.300;2023-04-21T02:37:57;13.52;;;5.72;;
41739;SDS011;27422;52.444;13.300;2023-04-21T02:40:23;11.10;;;6.28;;
41739;SDS011;27422;52.444;13.300;2023-04-21T02:42:48;10.93;;;6.32;;
41739;SDS011;27422;52.444;13.300;2023-04-21T02:45:13;11.40;;;6.38;;
41739;SDS011;27422;52.444;13.300;2023-04-21T02:47:39;14.02;;;6.45;;
41739;SDS011;27422;52.444;13.300;2023-04-21T02:50:05;10.07;;;6.13;;
41739;SDS011;27422;52.444;13.300;2023-04-21T02:52:34;10.90;;;6.85;;
41739;SDS011;27422;52.444;13.300;2023-04-21T02:55:00;10.85;;;6.32;;
41739;SDS011;27422;52.444;13.300;2023-04-21T02:57:27;11.73;;;6.63;;
41739;SDS011;27422;52.444;13.300;2023-04-21T02:59:52;13.10;;;6.22;;
41739;SDS011;27422;52.444;13.300;2023-04-21T03:02:18;10.85;;;5.85;;
41739;SDS011;27422;52.444;13.300;2023-04-21T03:04:43;11.20;;;6.60;;
41739;SDS011;27422;52.444;13.300;2023-04-21T03:07:12;12.18;;;6.43;;
41739;SDS011;27422;52.444;13.300;2023-04-21T03:09:38;11.73;;;6.95;;
41739;SDS011;27422;52.444;13.300;2023-04-21T03:12:03;13.43;;;6.88;;
41739;SDS011;27422;52.444;13.300;2023-04-21T03:14:29;10.63;;;6.38;;
41739;SDS011;27422;52.444;13.300;2023-04-21T03:16:54;11.98;;;6.72;;
41739;SDS011;27422;52.444;13.300;2023-04-21T03:19:19;13.63;;;6.95;;
41739;SDS011;27422;52.444;13.300;2023-04-21T03:21:45;14.90;;;6.82;;
41739;SDS011;27422;52.444;13.300;2023-04-21T03:24:10;14.73;;;7.63;;
41739;SDS011;27422;52.444;13.300;2023-04-21T03:26:37;14.38;;;7.45;;
41739;SDS011;27422;52.444;13.300;2023-04-21T03:29:03;12.07;;;7.47;;
41739;SDS011;27422;52.444;13.300;2023-04-21T03:31:29;13.18;;;7.50;;
41739;SDS011;27422;52.444;13.300;2023-04-21T03:33:54;14.35;;;7.28;;
41739;SDS011;27422;52.444;13.300;2023-04-21T03:36:19;10.05;;;6.63;;
41739;SDS011;27422;52.444;13.300;2023-04-21T03:38:45;14.70;;;7.05;;
41739;SDS011;27422;52.444;13.300;2023-04-21T03:41:10;11.52;;;6.90;;
41739;SDS011;27422;52.444;13.300;2023-04-21T03:43:35;13.70;;;7.32;;
41739;SDS011;27422;52.444;13.300;2023-04-21T03:46:01;10.80;;;6.95;;
41739;SDS011;27422;52.444;13.300;2023-04-21T03:48:27;12.82;;;7.00;;
41739;SDS011;27422;52.444;13.300;2023-04-21T03:50:53;12.55;;;6.95;;
41739;SDS011;27422;52.444;13.300;2023-04-21T03:53:19;11.50;;;6.90;;
41739;SDS011;27422;52.444;13.300;2023-04-21T03:55:44;11.13;;;6.65;;
41739;SDS011;27422;52.444;13.300;2023-04-21T03:58:13;12.85;;;6.65;;
41739;SDS011;27422;52.444;13.300;2023-04-21T04:00:39;12.33;;;6.90;;
41739;SDS011;27422;52.444;13.300;2023-04-21T04:03:05;11.18;;;7.00;;
41739;SDS011;27422;52.444;13.300;2023-04-21T04:05:31;11.80;;;6.70;;
41739;SDS011;27422;52.444;13.300;2023-04-21T04:07:57;13.35;;;6.95;;
41739;SDS011;27422;52.444;13.300;2023-04-21T04:10:22;10.48;;;6.60;;
41739;SDS011;27422;52.444;13.300;2023-04-21T04:12:47;13.95;;;7.35;;
41739;SDS011;27422;52.444;13.300;2023-04-21T04:15:13;11.95;;;6.80;;
41739;SDS011;27422;52.444;13.300;2023-04-21T04:17:39;10.75;;;6.53;;
41739;SDS011;27422;52.444;13.300;2023-04-21T04:20:05;15.23;;;7.30;;
41739;SDS011;27422;52.444;13.300;2023-04-21T04:22:32;12.15;;;6.47;;
41739;SDS011;27422;52.444;13.300;2023-04-21T04:24:57;12.05;;;6.65;;
41739;SDS011;27422;52.444;13.300;2023-04-21T04:27:23;14.02;;;6.80;;
41739;SDS011;27422;52.444;13.300;2023-04-21T04:29:50;13.93;;;7.13;;
41739;SDS011;27422;52.444;13.300;2023-04-21T04:32:17;13.05;;;7.15;;
41739;SDS011;27422;52.444;13.300;2023-04-21T04:34:42;12.02;;;7.18;;
41739;SDS011;27422;52.444;13.300;2023-04-21T04:37:08;9.88;;;6.63;;
41739;SDS011;27422;52.444;13.300;2023-04-21T04:39:35;14.48;;;6.93;;
41739;SDS011;27422;52.444;13.300;2023-04-21T04:42:01;14.00;;;7.75;;
41739;SDS011;27422;52.444;13.300;2023-04-21T04:44:27;11.30;;;7.22;;
41739;SDS011;27422;52.444;13.300;2023-04-21T04:46:53;12.77;;;7.10;;
41739;SDS011;27422;52.444;13.300;2023-04-21T04:49:18;12.55;;;6.97;;
41739;SDS011;27422;52.444;13.300;2023-04-21T04:51:44;11.35;;;6.90;;
41739;SDS011;27422;52.444;13.300;2023-04-21T04:54:10;13.07;;;7.22;;
41739;SDS011;27422;52.444;13.300;2023-04-21T04:56:35;10.55;;;6.75;;
41739;SDS011;27422;52.444;13.300;2023-04-21T04:59:01;14.40;;;7.47;;
41739;SDS011;27422;52.444;13.300;2023-04-21T05:01:27;12.02;;;7.82;;
41739;SDS011;27422;52.444;13.300;2023-04-21T05:03:54;13.98;;;7.22;;
41739;SDS011;27422;52.444;13.300;2023-04-21T05:06:20;13.02;;;7.38;;
41739;SDS011;27422;52.444;13.300;2023-04-21T05:08:46;12.65;;;7.35;;
41739;SDS011;27422;52.444;13.300;2023-04-21T05:11:12;13.13;;;7.53;;
41739;SDS011;27422;52.444;13.300;2023-04-21T05:13:37;11.77;;;7.40;;
41739;SDS011;27422;52.444;13.300;2023-04-21T05:16:03;13.27;;;7.05;;
41739;SDS011;27422;52.444;13.300;2023-04-21T05:18:28;12.60;;;7.30;;
41739;SDS011;27422;52.444;13.300;2023-04-21T05:20:54;11.75;;;6.88;;
41739;SDS011;27422;52.444;13.300;2023-04-21T05:23:19;10.70;;;6.82;;
41739;SDS011;27422;52.444;13.300;2023-04-21T05:25:45;15.35;;;7.00;;
41739;SDS011;27422;52.444;13.300;2023-04-21T05:28:10;15.45;;;7.65;;
41739;SDS011;27422;52.444;13.300;2023-04-21T05:30:36;11.35;;;6.75;;
41739;SDS011;27422;52.444;13.300;2023-04-21T05:33:01;12.35;;;7.38;;
41739;SDS011;27422;52.444;13.300;2023-04-21T05:35:29;11.20;;;6.72;;
41739;SDS011;27422;52.444;13.300;2023-04-21T05:37:55;11.40;;;7.10;;
41739;SDS011;27422;52.444;13.300;2023-04-21T05:40:20;11.45;;;6.55;;
41739;SDS011;27422;52.444;13.300;2023-04-21T05:42:46;11.27;;;6.65;;
41739;SDS011;27422;52.444;13.300;2023-04-21T05:45:11;13.52;;;7.13;;
41739;SDS011;27422;52.444;13.300;2023-04-21T05:47:57;13.40;;;6.95;;
41739;SDS011;27422;52.444;13.300;2023-04-21T05:50:22;13.57;;;7.13;;
41739;SDS011;27422;52.444;13.300;2023-04-21T05:52:49;14.23;;;6.70;;
41739;SDS011;27422;52.444;13.300;2023-04-21T05:55:14;11.00;;;6.80;;
41739;SDS011;27422;52.444;13.300;2023-04-21T05:57:40;12.07;;;7.20;;
41739;SDS011;27422;52.444;13.300;2023-04-21T06:00:05;10.57;;;6.60;;
41739;SDS011;27422;52.444;13.300;2023-04-21T06:02:31;11.10;;;6.95;;
41739;SDS011;27422;52.444;13.300;2023-04-21T06:04:57;9.93;;;6.28;;
41739;SDS011;27422;52.444;13.300;2023-04-21T06:07:22;12.20;;;7.00;;
41739;SDS011;27422;52.444;13.300;2023-04-21T06:09:50;11.20;;;6.80;;
41739;SDS011;27422;52.444;13.300;2023-04-21T06:12:16;11.27;;;6.70;;
41739;SDS011;27422;52.444;13.300;2023-04-21T06:14:41;10.73;;;6.85;;
41739;SDS011;27422;52.444;13.300;2023-04-21T06:17:07;13.95;;;7.47;;
41739;SDS011;27422;52.444;13.300;2023-04-21T06:19:35;12.98;;;6.82;;
41739;SDS011;27422;52.444;13.300;2023-04-21T06:22:02;14.80;;;7.88;;
41739;SDS011;27422;52.444;13.300;2023-04-21T06:24:30;10.23;;;6.63;;
41739;SDS011;27422;52.444;13.300;2023-04-21T06:26:56;12.00;;;6.95;;
41739;SDS011;27422;52.444;13.300;2023-04-21T06:29:22;13.45;;;6.90;;
41739;SDS011;27422;52.444;13.300;2023-04-21T06:31:47;10.27;;;6.97;;
41739;SDS011;27422;52.444;13.300;2023-04-21T06:34:12;12.38;;;6.55;;
41739;SDS011;27422;52.444;13.300;2023-04-21T06:36:38;11.93;;;6.57;;
41739;SDS011;27422;52.444;13.300;2023-04-21T06:39:03;11.68;;;6.40;;
41739;SDS011;27422;52.444;13.300;2023-04-21T06:41:29;11.93;;;6.95;;
41739;SDS011;27422;52.444;13.300;2023-04-21T06:43:54;9.85;;;6.43;;
41739;SDS011;27422;52.444;13.300;2023-04-21T06:46:19;12.70;;;6.72;;
41739;SDS011;27422;52.444;13.300;2023-04-21T06:48:45;11.77;;;6.88;;
41739;SDS011;27422;52.444;13.300;2023-04-21T06:51:10;12.27;;;6.45;;
41739;SDS011;27422;52.444;13.300;2023-04-21T06:53:36;17.52;;;6.82;;
41739;SDS011;27422;52.444;13.300;2023-04-21T06:56:02;9.65;;;6.50;;
41739;SDS011;27422;52.444;13.300;2023-04-21T06:58:27;10.63;;;6.53;;
41739;SDS011;27422;52.444;13.300;2023-04-21T07:00:53;9.80;;;6.43;;
41739;SDS011;27422;52.444;13.300;2023-04-21T07:03:18;11.25;;;6.50;;
41739;SDS011;27422;52.444;13.300;2023-04-21T07:05:43;11.50;;;6.88;;
41739;SDS011;27422;52.444;13.300;2023-04-21T07:08:09;13.88;;;7.10;;
41739;SDS011;27422;52.444;13.300;2023-04-21T07:10:35;10.73;;;6.30;;
41739;SDS011;27422;52.444;13.300;2023-04-21T07:13:00;10.77;;;6.25;;
41739;SDS011;27422;52.444;13.300;2023-04-21T07:15:26;8.68;;;5.93;;
41739;SDS011;27422;52.444;13.300;2023-04-21T07:17:51;10.23;;;6.50;;
41739;SDS011;27422;52.444;13.300;2023-04-21T07:20:16;11.07;;;6.70;;
41739;SDS011;27422;52.444;13.300;2023-04-21T07:22:42;9.38;;;6.07;;
41739;SDS011;27422;52.444;13.300;2023-04-21T07:25:08;10.20;;;6.10;;
41739;SDS011;27422;52.444;13.300;2023-04-21T07:27:37;9.77;;;6.28;;
41739;SDS011;27422;52.444;13.300;2023-04-21T07:30:03;12.25;;;7.07;;
41739;SDS011;27422;52.444;13.300;2023-04-21T07:32:30;16.48;;;9.23;;
41739;SDS011;27422;52.444;13.300;2023-04-21T07:34:56;10.68;;;6.75;;
41739;SDS011;27422;52.444;13.300;2023-04-21T07:37:22;11.15;;;5.65;;
41739;SDS011;27422;52.444;13.300;2023-04-21T07:39:48;13.95;;;6.35;;
41739;SDS011;27422;52.444;13.300;2023-04-21T07:42:13;8.90;;;5.50;;
41739;SDS011;27422;52.444;13.300;2023-04-21T07:44:38;10.48;;;6.10;;
41739;SDS011;27422;52.444;13.300;2023-04-21T07:47:04;8.73;;;6.22;;
41739;SDS011;27422;52.444;13.300;2023-04-21T07:49:30;11.00;;;5.72;;
41739;SDS011;27422;52.444;13.300;2023-04-21T07:51:55;11.50;;;5.78;;
41739;SDS011;27422;52.444;13.300;2023-04-21T07:54:20;8.45;;;5.85;;
41739;SDS011;27422;52.444;13.300;2023-04-21T07:56:46;9.27;;;5.70;;
41739;SDS011;27422;52.444;13.300;2023-04-21T07:59:11;11.30;;;5.63;;
41739;SDS011;27422;52.444;13.300;2023-04-21T08:01:36;8.98;;;5.57;;
41739;SDS011;27422;52.444;13.300;2023-04-21T08:04:02;9.32;;;5.75;;
41739;SDS011;27422;52.444;13.300;2023-04-21T08:06:27;10.40;;;5.60;;
41739;SDS011;27422;52.444;13.300;2023-04-21T08:08:53;8.32;;;5.53;;
41739;SDS011;27422;52.444;13.300;2023-04-21T08:11:19;9.32;;;5.65;;
41739;SDS011;27422;52.444;13.300;2023-04-21T08:13:46;8.45;;;5.50;;
41739;SDS011;27422;52.444;13.300;2023-04-21T08:16:11;10.18;;;6.25;;
41739;SDS011;27422;52.444;13.300;2023-04-21T08:18:37;8.50;;;5.43;;
41739;SDS011;27422;52.444;13.300;2023-04-21T08:21:02;8.82;;;5.20;;
41739;SDS011;27422;52.444;13.300;2023-04-21T08:23:28;8.95;;;5.60;;
41739;SDS011;27422;52.444;13.300;2023-04-21T08:25:55;10.70;;;5.45;;
41739;SDS011;27422;52.444;13.300;2023-04-21T08:28:20;12.00;;;5.90;;
41739;SDS011;27422;52.444;13.300;2023-04-21T08:30:45;9.82;;;5.85;;
41739;SDS011;27422;52.444;13.300;2023-04-21T08:33:11;8.52;;;5.28;;
41739;SDS011;27422;52.444;13.300;2023-04-21T08:35:38;8.93;;;5.60;;
41739;SDS011;27422;52.444;13.300;2023-04-21T08:38:05;9.07;;;5.28;;
41739;SDS011;27422;52.444;13.300;2023-04-21T08:40:37;9.68;;;4.93;;
41739;SDS011;27422;52.444;13.300;2023-04-21T08:43:06;6.97;;;4.68;;
41739;SDS011;27422;52.444;13.300;2023-04-21T08:45:32;9.88;;;4.53;;
41739;SDS011;27422;52.444;13.300;2023-04-21T08:47:58;7.35;;;4.70;;
41739;SDS011;27422;52.444;13.300;2023-04-21T08:50:26;9.50;;;4.47;;
41739;SDS011;27422;52.444;13.300;2023-04-21T08:52:55;7.85;;;4.47;;
41739;SDS011;27422;52.444;13.300;2023-04-21T08:55:24;7.20;;;4.20;;
41739;SDS011;27422;52.444;13.300;2023-04-21T08:57:54;8.27;;;4.75;;
41739;SDS011;27422;52.444;13.300;2023-04-21T09:00:20;6.82;;;4.70;;
41739;SDS011;27422;52.444;13.300;2023-04-21T09:02:51;8.60;;;4.78;;
41739;SDS011;27422;52.444;13.300;2023-04-21T09:05:24;7.05;;;4.13;;
41739;SDS011;27422;52.444;13.300;2023-04-21T09:08:06;7.45;;;4.43;;
41739;SDS011;27422;52.444;13.300;2023-04-21T09:10:49;7.18;;;4.00;;
41739;SDS011;27422;52.444;13.300;2023-04-21T09:13:16;8.98;;;4.60;;
41739;SDS011;27422;52.444;13.300;2023-04-21T09:15:43;6.07;;;4.00;;
41739;SDS011;27422;52.444;13.300;2023-04-21T09:20:39;7.07;;;4.00;;
41739;SDS011;27422;52.444;13.300;2023-04-21T09:23:06;5.68;;;3.90;;
41739;SDS011;27422;52.444;13.300;2023-04-21T09:25:32;6.00;;;3.80;;
41739;SDS011;27422;52.444;13.300;2023-04-21T09:27:59;6.10;;;3.65;;
41739;SDS011;27422;52.444;13.300;2023-04-21T09:30:25;6.30;;;3.90;;
41739;SDS011;27422;52.444;13.300;2023-04-21T09:32:51;10.15;;;4.40;;
41739;SDS011;27422;52.444;13.300;2023-04-21T09:35:21;7.28;;;3.95;;
41739;SDS011;27422;52.444;13.300;2023-04-21T09:37:47;5.72;;;3.90;;
41739;SDS011;27422;52.444;13.300;2023-04-21T09:40:13;7.38;;;4.15;;
41739;SDS011;27422;52.444;13.300;2023-04-21T09:42:39;5.73;;;3.60;;
41739;SDS011;27422;52.444;13.300;2023-04-21T09:45:05;7.07;;;3.65;;
41739;SDS011;27422;52.444;13.300;2023-04-21T09:47:34;6.28;;;3.97;;
41739;SDS011;27422;52.444;13.300;2023-04-21T09:50:05;6.68;;;3.75;;
41739;SDS011;27422;52.444;13.300;2023-04-21T09:52:31;6.53;;;3.90;;
41739;SDS011;27422;52.444;13.300;2023-04-21T09:54:59;6.05;;;3.53;;
41739;SDS011;27422;52.444;13.300;2023-04-21T09:57:28;6.20;;;3.85;;
41739;SDS011;27422;52.444;13.300;2023-04-21T09:59:59;6.28;;;3.90;;
41739;SDS011;27422;52.444;13.300;2023-04-21T10:02:28;7.07;;;4.28;;
41739;SDS011;27422;52.444;13.300;2023-04-21T10:04:54;5.80;;;3.92;;
41739;SDS011;27422;52.444;13.300;2023-04-21T10:07:22;5.68;;;3.88;;
41739;SDS011;27422;52.444;13.300;2023-04-21T10:09:58;6.13;;;3.72;;
41739;SDS011;27422;52.444;13.300;2023-04-21T10:12:26;7.78;;;4.03;;
41739;SDS011;27422;52.444;13.300;2023-04-21T10:14:53;6.07;;;4.03;;
41739;SDS011;27422;52.444;13.300;2023-04-21T10:17:22;7.20;;;4.37;;
41739;SDS011;27422;52.444;13.300;2023-04-21T10:19:50;7.50;;;4.25;;
41739;SDS011;27422;52.444;13.300;2023-04-21T10:22:26;6.68;;;4.05;;
41739;SDS011;27422;52.444;13.300;2023-04-21T10:24:53;5.85;;;3.65;;
41739;SDS011;27422;52.444;13.300;2023-04-21T10:27:32;6.63;;;4.35;;
41739;SDS011;27422;52.444;13.300;2023-04-21T10:30:21;6.30;;;3.85;;
41739;SDS011;27422;52.444;13.300;2023-04-21T10:32:48;6.97;;;4.13;;
41739;SDS011;27422;52.444;13.300;2023-04-21T10:35:22;5.65;;;3.60;;
41739;SDS011;27422;52.444;13.300;2023-04-21T10:37:48;7.78;;;4.25;;
41739;SDS011;27422;52.444;13.300;2023-04-21T10:43:02;6.00;;;3.80;;
41739;SDS011;27422;52.444;13.300;2023-04-21T10:45:28;5.10;;;3.40;;
41739;SDS011;27422;52.444;13.300;2023-04-21T10:47:54;7.22;;;4.03;;
41739;SDS011;27422;52.444;13.300;2023-04-21T10:50:20;5.10;;;3.30;;
41739;SDS011;27422;52.444;13.300;2023-04-21T10:52:53;5.65;;;3.70;;
41739;SDS011;27422;52.444;13.300;2023-04-21T10:55:20;7.07;;;3.60;;
41739;SDS011;27422;52.444;13.300;2023-04-21T10:57:46;6.28;;;3.83;;
41739;SDS011;27422;52.444;13.300;2023-04-21T11:00:16;5.63;;;3.50;;
41739;SDS011;27422;52.444;13.300;2023-04-21T11:02:43;6.18;;;3.60;;
41739;SDS011;27422;52.444;13.300;2023-04-21T11:05:13;6.03;;;3.53;;
41739;SDS011;27422;52.444;13.300;2023-04-21T11:07:38;6.45;;;3.83;;
41739;SDS011;27422;52.444;13.300;2023-04-21T11:10:07;6.47;;;3.88;;
41739;SDS011;27422;52.444;13.300;2023-04-21T11:12:38;5.20;;;3.13;;
41739;SDS011;27422;52.444;13.300;2023-04-21T11:15:05;6.30;;;3.58;;
41739;SDS011;27422;52.444;13.300;2023-04-21T11:17:31;5.25;;;3.50;;
41739;SDS011;27422;52.444;13.300;2023-04-21T11:19:57;4.97;;;3.30;;
41739;SDS011;27422;52.444;13.300;2023-04-21T11:22:23;5.72;;;3.38;;
41739;SDS011;27422;52.444;13.300;2023-04-21T11:24:52;5.00;;;3.25;;
41739;SDS011;27422;52.444;13.300;2023-04-21T11:27:18;6.18;;;3.67;;
41739;SDS011;27422;52.444;13.300;2023-04-21T11:29:46;8.30;;;3.40;;
41739;SDS011;27422;52.444;13.300;2023-04-21T11:32:12;5.35;;;3.22;;
41739;SDS011;27422;52.444;13.300;2023-04-21T11:34:38;5.63;;;3.33;;
41739;SDS011;27422;52.444;13.300;2023-04-21T11:37:07;4.78;;;3.08;;
41739;SDS011;27422;52.444;13.300;2023-04-21T11:39:34;5.95;;;3.35;;
41739;SDS011;27422;52.444;13.300;2023-04-21T11:41:59;5.95;;;3.45;;
41739;SDS011;27422;52.444;13.300;2023-04-21T11:44:30;5.03;;;3.50;;
41739;SDS011;27422;52.444;13.300;2023-04-21T11:47:18;7.28;;;3.40;;
41739;SDS011;27422;52.444;13.300;2023-04-21T11:49:45;4.63;;;2.92;;
41739;SDS011;27422;52.444;13.300;2023-04-21T11:52:21;5.47;;;3.47;;
41739;SDS011;27422;52.444;13.300;2023-04-21T11:54:52;5.47;;;3.37;;
41739;SDS011;27422;52.444;13.300;2023-04-21T11:57:24;7.68;;;3.30;;
41739;SDS011;27422;52.444;13.300;2023-04-21T11:59:50;5.15;;;3.28;;
41739;SDS011;27422;52.444;13.300;2023-04-21T12:02:20;8.52;;;3.80;;
41739;SDS011;27422;52.444;13.300;2023-04-21T12:05:00;6.03;;;3.20;;
41739;SDS011;27422;52.444;13.300;2023-04-21T12:07:30;5.10;;;3.83;;
41739;SDS011;27422;52.444;13.300;2023-04-21T12:09:57;5.60;;;3.80;;
41739;SDS011;27422;52.444;13.300;2023-04-21T12:12:23;6.55;;;4.03;;
41739;SDS011;27422;52.444;13.300;2023-04-21T12:14:49;6.22;;;3.85;;
41739;SDS011;27422;52.444;13.300;2023-04-21T12:17:15;6.78;;;4.07;;
41739;SDS011;27422;52.444;13.300;2023-04-21T12:19:41;5.90;;;3.92;;
41739;SDS011;27422;52.444;13.300;2023-04-21T12:22:10;8.98;;;4.47;;
41739;SDS011;27422;52.444;13.300;2023-04-21T12:24:40;8.20;;;4.40;;
41739;SDS011;27422;52.444;13.300;2023-04-21T12:27:06;7.65;;;4.18;;
41739;SDS011;27422;52.444;13.300;2023-04-21T12:29:32;6.90;;;4.55;;
41739;SDS011;27422;52.444;13.300;2023-04-21T12:32:02;7.22;;;4.50;;
41739;SDS011;27422;52.444;13.300;2023-04-21T12:34:28;7.00;;;4.47;;
41739;SDS011;27422;52.444;13.300;2023-04-21T12:36:54;6.90;;;4.20;;
41739;SDS011;27422;52.444;13.300;2023-04-21T12:39:19;5.88;;;4.00;;
41739;SDS011;27422;52.444;13.300;2023-04-21T12:41:46;8.20;;;4.32;;
41739;SDS011;27422;52.444;13.300;2023-04-21T12:44:12;7.57;;;4.22;;
41739;SDS011;27422;52.444;13.300;2023-04-21T12:46:37;7.75;;;4.07;;
41739;SDS011;27422;52.444;13.300;2023-04-21T12:49:24;9.20;;;4.50;;
41739;SDS011;27422;52.444;13.300;2023-04-21T12:52:09;7.50;;;4.13;;
41739;SDS011;27422;52.444;13.300;2023-04-21T12:54:35;8.20;;;4.20;;
41739;SDS011;27422;52.444;13.300;2023-04-21T12:57:00;7.22;;;4.03;;
41739;SDS011;27422;52.444;13.300;2023-04-21T12:59:26;6.65;;;3.67;;
41739;SDS011;27422;52.444;13.300;2023-04-21T13:01:51;12.93;;;5.25;;
41739;SDS011;27422;52.444;13.300;2023-04-21T13:04:17;8.68;;;3.95;;
41739;SDS011;27422;52.444;13.300;2023-04-21T13:06:42;7.20;;;4.07;;
41739;SDS011;27422;52.444;13.300;2023-04-21T13:09:08;7.10;;;4.50;;
41739;SDS011;27422;52.444;13.300;2023-04-21T13:11:33;11.48;;;4.28;;
41739;SDS011;27422;52.444;13.300;2023-04-21T13:13:58;5.40;;;3.58;;
41739;SDS011;27422;52.444;13.300;2023-04-21T13:16:24;8.23;;;4.20;;
41739;SDS011;27422;52.444;13.300;2023-04-21T13:18:49;6.47;;;4.13;;
41739;SDS011;27422;52.444;13.300;2023-04-21T13:21:15;6.20;;;3.47;;
41739;SDS011;27422;52.444;13.300;2023-04-21T13:23:40;5.38;;;3.45;;
41739;SDS011;27422;52.444;13.300;2023-04-21T13:26:06;5.68;;;3.35;;
41739;SDS011;27422;52.444;13.300;2023-04-21T13:28:31;7.25;;;3.72;;
41739;SDS011;27422;52.444;13.300;2023-04-21T13:30:57;5.90;;;3.60;;
41739;SDS011;27422;52.444;13.300;2023-04-21T13:33:22;7.45;;;4.13;;
41739;SDS011;27422;52.444;13.300;2023-04-21T13:35:48;7.03;;;3.65;;
41739;SDS011;27422;52.444;13.300;2023-04-21T13:38:13;6.75;;;3.92;;
41739;SDS011;27422;52.444;13.300;2023-04-21T13:40:42;6.22;;;3.80;;
41739;SDS011;27422;52.444;13.300;2023-04-21T13:43:07;4.80;;;3.40;;
41739;SDS011;27422;52.444;13.300;2023-04-21T13:45:33;5.60;;;3.35;;
41739;SDS011;27422;52.444;13.300;2023-04-21T13:47:58;6.95;;;3.95;;
41739;SDS011;27422;52.444;13.300;2023-04-21T13:50:24;5.35;;;3.25;;
41739;SDS011;27422;52.444;13.300;2023-04-21T13:52:49;5.65;;;3.28;;
41739;SDS011;27422;52.444;13.300;2023-04-21T13:55:14;8.00;;;3.97;;
41739;SDS011;27422;52.444;13.300;2023-04-21T13:57:44;6.28;;;3.55;;
41739;SDS011;27422;52.444;13.300;2023-04-21T14:00:10;8.25;;;3.70;;
41739;SDS011;27422;52.444;13.300;2023-04-21T14:02:36;5.60;;;3.45;;
41739;SDS011;27422;52.444;13.300;2023-04-21T14:05:02;4.67;;;3.13;;
41739;SDS011;27422;52.444;13.300;2023-04-21T14:07:28;5.80;;;3.30;;
41739;SDS011;27422;52.444;13.300;2023-04-21T14:09:54;5.15;;;3.00;;
41739;SDS011;27422;52.444;13.300;2023-04-21T14:12:19;6.43;;;3.00;;
41739;SDS011;27422;52.444;13.300;2023-04-21T14:14:45;7.25;;;3.28;;
41739;SDS011;27422;52.444;13.300;2023-04-21T14:17:11;5.05;;;2.90;;
41739;SDS011;27422;52.444;13.300;2023-04-21T14:19:36;5.63;;;3.20;;
41739;SDS011;27422;52.444;13.300;2023-04-21T14:22:02;6.72;;;3.28;;
41739;SDS011;27422;52.444;13.300;2023-04-21T14:24:27;5.82;;;2.95;;
41739;SDS011;27422;52.444;13.300;2023-04-21T14:26:54;7.07;;;3.42;;
41739;SDS011;27422;52.444;13.300;2023-04-21T14:29:22;5.07;;;3.40;;
41739;SDS011;27422;52.444;13.300;2023-04-21T14:31:48;5.10;;;3.08;;
41739;SDS011;27422;52.444;13.300;2023-04-21T14:34:14;4.35;;;2.80;;